Time;durP1;ratioP1;P1;durP2;ratioP2;P2;SDS_P1;SDS_P2;PMS_P1;PMS_P2;Temp;Humidity;BMP_temperature;BMP_pressure;BME280_temperature;BME280_humidity;BME280_pressure;Samples;Min_cycle;Max_cycle;Signal;HPM_P1;HPM_P2
2022/03/24 00:01:08;;;;;;;18.20;5.80;;;;;;;;;;5083856;28;20464;-82
2022/03/24 00:03:38;;;;;;;19.73;6.07;;;;;;;;;;5090858;28;20048;-82
2022/03/24 00:06:07;;;;;;;13.93;5.93;;;;;;;;;;5089973;28;20530;-82
2022/03/24 00:08:36;;;;;;;16.38;6.03;;;;;;;;;;5091094;28;20075;-82
2022/03/24 00:11:07;;;;;;;14.02;6.38;;;;;;;;;;5083427;28;20044;-82
2022/03/24 00:13:36;;;;;;;13.73;5.38;;;;;;;;;;5090090;28;20209;-82
2022/03/24 00:16:07;;;;;;;15.30;5.28;;;;;;;;;;5082310;28;20083;-82
2022/03/24 00:18:35;;;;;;;19.00;6.25;;;;;;;;;;5087682;28;20044;-82
2022/03/24 00:21:13;;;;;;;12.48;5.53;;;;;;;;;;5086123;28;20087;-82
2022/03/24 00:23:41;;;;;;;17.38;6.22;;;;;;;;;;5092165;28;20376;-81
2022/03/24 00:26:09;;;;;;;15.15;5.85;;;;;;;;;;5087412;28;20072;-81
2022/03/24 00:28:38;;;;;;;12.65;5.43;;;;;;;;;;5088378;28;20140;-82
2022/03/24 00:31:09;;;;;;;12.00;5.75;;;;;;;;;;5089667;28;20052;-81
2022/03/24 00:33:38;;;;;;;15.30;5.60;;;;;;;;;;5090149;28;20484;-82
2022/03/24 00:36:11;;;;;;;14.25;5.38;;;;;;;;;;5086444;28;20075;-81
2022/03/24 00:38:40;;;;;;;15.32;5.50;;;;;;;;;;5085269;28;20055;-81
2022/03/24 00:41:08;;;;;;;20.48;5.80;;;;;;;;;;5080417;28;20139;-82
2022/03/24 00:43:37;;;;;;;11.38;5.28;;;;;;;;;;5087989;28;20439;-82
2022/03/24 00:46:08;;;;;;;10.02;4.75;;;;;;;;;;5078545;28;20404;-82
2022/03/24 00:48:37;;;;;;;13.48;5.63;;;;;;;;;;5085833;28;20211;-81
2022/03/24 00:51:08;;;;;;;10.93;5.05;;;;;;;;;;5083068;28;20048;-81
2022/03/24 00:53:38;;;;;;;13.93;5.60;;;;;;;;;;5086396;28;20036;-81
2022/03/24 00:56:07;;;;;;;14.23;5.82;;;;;;;;;;5080647;28;20109;-82
2022/03/24 00:58:35;;;;;;;13.60;6.05;;;;;;;;;;5077171;28;20072;-81
2022/03/24 01:01:10;;;;;;;18.92;6.22;;;;;;;;;;5076124;28;20063;-81
2022/03/24 01:03:39;;;;;;;14.27;5.55;;;;;;;;;;5084084;28;20063;-81
2022/03/24 01:06:08;;;;;;;18.05;6.78;;;;;;;;;;5076968;28;20178;-81
2022/03/24 01:08:38;;;;;;;15.45;7.15;;;;;;;;;;5088796;28;20062;-81
2022/03/24 01:11:10;;;;;;;19.70;6.55;;;;;;;;;;5080439;28;20067;-81
2022/03/24 01:13:40;;;;;;;14.32;6.70;;;;;;;;;;5088025;28;20391;-82
2022/03/24 01:16:13;;;;;;;14.57;5.70;;;;;;;;;;5081869;28;20151;-81
2022/03/24 01:18:41;;;;;;;14.15;6.30;;;;;;;;;;5084636;28;20416;-81
2022/03/24 01:21:11;;;;;;;15.18;6.40;;;;;;;;;;5078907;28;20502;-81
2022/03/24 01:23:41;;;;;;;14.23;6.22;;;;;;;;;;5081996;28;20479;-82
2022/03/24 01:26:11;;;;;;;13.10;6.18;;;;;;;;;;5074270;28;20083;-81
2022/03/24 01:28:41;;;;;;;14.75;6.43;;;;;;;;;;5086592;28;20051;-81
2022/03/24 01:31:10;;;;;;;17.27;6.65;;;;;;;;;;5077508;28;20151;-81
2022/03/24 01:33:39;;;;;;;18.65;7.00;;;;;;;;;;5081757;28;20048;-82
2022/03/24 01:36:11;;;;;;;16.10;6.65;;;;;;;;;;5087664;28;20047;-81
2022/03/24 01:38:40;;;;;;;14.35;6.45;;;;;;;;;;5086820;28;20103;-82
2022/03/24 01:41:09;;;;;;;18.70;7.43;;;;;;;;;;5087747;28;20075;-82
2022/03/24 01:43:38;;;;;;;17.02;6.57;;;;;;;;;;5088835;28;20130;-81
2022/03/24 01:46:09;;;;;;;14.68;7.30;;;;;;;;;;5086235;28;20132;-81
2022/03/24 01:48:38;;;;;;;17.67;6.97;;;;;;;;;;5086862;28;20184;-81
2022/03/24 01:51:09;;;;;;;15.75;6.72;;;;;;;;;;5086494;28;20074;-82
2022/03/24 01:53:37;;;;;;;17.20;6.05;;;;;;;;;;5085225;28;20054;-81
2022/03/24 01:56:12;;;;;;;14.00;5.90;;;;;;;;;;5088045;28;20070;-81
2022/03/24 01:58:43;;;;;;;17.08;6.32;;;;;;;;;;5072918;28;20408;-81
2022/03/24 02:01:29;;;;;;;14.23;6.57;;;;;;;;;;5079961;28;20068;-82
2022/03/24 02:03:59;;;;;;;12.00;5.82;;;;;;;;;;5084744;28;20438;-81
2022/03/24 02:06:27;;;;;;;13.57;5.78;;;;;;;;;;5078333;28;20159;-81
2022/03/24 02:08:57;;;;;;;15.13;6.32;;;;;;;;;;5079588;28;20064;-81
2022/03/24 02:11:27;;;;;;;20.52;6.15;;;;;;;;;;5086565;28;20074;-81
2022/03/24 02:13:55;;;;;;;14.32;5.85;;;;;;;;;;5090303;28;20480;-81
2022/03/24 02:16:27;;;;;;;17.60;6.25;;;;;;;;;;5083370;28;20139;-81
2022/03/24 02:18:59;;;;;;;14.48;5.95;;;;;;;;;;5074879;28;20094;-81
2022/03/24 02:21:27;;;;;;;12.27;5.40;;;;;;;;;;5078208;28;20063;-82
2022/03/24 02:23:59;;;;;;;16.08;5.72;;;;;;;;;;5076600;28;20052;-82
2022/03/24 02:26:28;;;;;;;11.43;5.07;;;;;;;;;;5086252;28;20298;-81
2022/03/24 02:28:57;;;;;;;17.15;6.03;;;;;;;;;;5077480;28;20147;-81
2022/03/24 02:31:27;;;;;;;12.52;5.35;;;;;;;;;;5075941;28;20136;-81
2022/03/24 02:34:37;;;;;;;20.38;5.95;;;;;;;;;;5076813;28;20048;-81
2022/03/24 02:36:44;;;;;;;16.95;5.78;;;;;;;;;;5079043;28;21359;-81
2022/03/24 02:39:14;;;;;;;14.60;5.72;;;;;;;;;;5075012;28;20151;-81
2022/03/24 02:41:47;;;;;;;15.55;6.53;;;;;;;;;;5080958;28;20045;-82
2022/03/24 02:44:17;;;;;;;15.88;5.75;;;;;;;;;;5079197;28;20048;-81
2022/03/24 02:46:46;;;;;;;14.10;6.72;;;;;;;;;;5088007;28;20044;-81
2022/03/24 02:49:14;;;;;;;15.18;6.07;;;;;;;;;;5084827;28;20044;-82
2022/03/24 02:51:43;;;;;;;16.23;6.65;;;;;;;;;;5081372;28;20056;-81
2022/03/24 02:54:12;;;;;;;20.73;6.47;;;;;;;;;;5083535;28;20052;-81
2022/03/24 02:56:42;;;;;;;14.02;6.07;;;;;;;;;;5087079;28;20064;-81
2022/03/24 02:59:12;;;;;;;16.80;6.10;;;;;;;;;;5082696;28;20131;-82
2022/03/24 03:01:41;;;;;;;19.23;6.07;;;;;;;;;;5079526;28;20097;-81
2022/03/24 03:04:12;;;;;;;14.20;5.82;;;;;;;;;;5088416;28;20047;-82
2022/03/24 03:06:40;;;;;;;14.93;6.05;;;;;;;;;;5083180;28;20123;-81
2022/03/24 03:09:09;;;;;;;14.38;5.88;;;;;;;;;;5081557;28;20055;-81
2022/03/24 03:11:37;;;;;;;16.05;6.28;;;;;;;;;;5083826;28;20072;-81
2022/03/24 03:14:07;;;;;;;13.93;5.95;;;;;;;;;;5080486;28;20544;-81
2022/03/24 03:16:35;;;;;;;11.73;5.43;;;;;;;;;;5089189;28;20141;-81
2022/03/24 03:19:03;;;;;;;14.77;5.95;;;;;;;;;;5087513;28;20135;-81
2022/03/24 03:21:31;;;;;;;14.45;6.22;;;;;;;;;;5082365;28;20103;-81
2022/03/24 03:24:00;;;;;;;11.05;5.82;;;;;;;;;;5080166;28;20076;-81
2022/03/24 03:26:29;;;;;;;16.02;6.43;;;;;;;;;;5080460;28;20083;-81
2022/03/24 03:28:58;;;;;;;13.63;6.65;;;;;;;;;;5076976;28;20163;-82
2022/03/24 03:31:28;;;;;;;18.88;7.45;;;;;;;;;;5081807;28;20040;-81
2022/03/24 03:33:57;;;;;;;14.00;6.13;;;;;;;;;;5079749;28;20043;-81
2022/03/24 03:36:30;;;;;;;12.60;5.82;;;;;;;;;;5084325;28;20079;-81
2022/03/24 03:38:59;;;;;;;13.98;6.57;;;;;;;;;;5087046;28;20156;-81
2022/03/24 03:41:28;;;;;;;19.58;6.90;;;;;;;;;;5090664;28;20509;-81
2022/03/24 03:43:57;;;;;;;13.40;5.75;;;;;;;;;;5090686;28;20064;-81
2022/03/24 03:46:25;;;;;;;10.70;5.45;;;;;;;;;;5082016;28;20996;-81
2022/03/24 03:48:55;;;;;;;15.05;6.63;;;;;;;;;;5083480;28;20071;-81
2022/03/24 03:51:24;;;;;;;10.57;5.20;;;;;;;;;;5089649;28;20138;-81
2022/03/24 03:53:52;;;;;;;15.20;6.10;;;;;;;;;;5084048;28;20052;-81
2022/03/24 03:56:21;;;;;;;14.20;6.55;;;;;;;;;;5081592;28;20135;-81
2022/03/24 03:58:49;;;;;;;17.65;6.38;;;;;;;;;;5090595;28;20056;-81
2022/03/24 04:01:18;;;;;;;17.25;6.53;;;;;;;;;;5092424;28;20127;-81
2022/03/24 04:03:47;;;;;;;12.43;5.55;;;;;;;;;;5090113;28;20466;-81
2022/03/24 04:06:16;;;;;;;16.67;5.25;;;;;;;;;;5088879;28;20464;-81
2022/03/24 04:08:45;;;;;;;14.30;6.57;;;;;;;;;;5089033;28;20048;-81
2022/03/24 04:11:14;;;;;;;17.52;6.70;;;;;;;;;;5086772;28;20068;-81
2022/03/24 04:13:43;;;;;;;15.82;6.45;;;;;;;;;;5084376;28;20051;-80
2022/03/24 04:16:13;;;;;;;11.80;5.88;;;;;;;;;;5092344;28;20047;-80
2022/03/24 04:18:41;;;;;;;12.95;6.13;;;;;;;;;;5093847;28;20059;-81
2022/03/24 04:21:10;;;;;;;16.65;6.50;;;;;;;;;;5092987;28;20098;-81
2022/03/24 04:23:40;;;;;;;18.90;6.38;;;;;;;;;;5091437;28;20040;-81
2022/03/24 04:26:10;;;;;;;11.70;5.63;;;;;;;;;;5093039;28;20127;-80
2022/03/24 04:28:38;;;;;;;14.80;5.78;;;;;;;;;;5091338;28;20511;-80
2022/03/24 04:31:09;;;;;;;12.10;5.40;;;;;;;;;;5093643;28;20036;-81
2022/03/24 04:33:38;;;;;;;14.43;5.72;;;;;;;;;;5102322;28;20040;-84
2022/03/24 04:36:10;;;;;;;12.65;6.00;;;;;;;;;;5101868;28;20044;-83
2022/03/24 04:38:40;;;;;;;17.10;6.57;;;;;;;;;;5097585;28;20111;-82
2022/03/24 04:41:08;;;;;;;14.48;6.45;;;;;;;;;;5086929;28;20059;-84
2022/03/24 04:43:37;;;;;;;21.05;6.65;;;;;;;;;;5091035;28;20121;-82
2022/03/24 04:46:09;;;;;;;11.80;5.82;;;;;;;;;;5096941;28;20078;-82
2022/03/24 04:48:38;;;;;;;10.27;5.45;;;;;;;;;;5094482;28;20036;-82
2022/03/24 04:51:09;;;;;;;11.07;5.60;;;;;;;;;;5095207;28;20106;-82
2022/03/24 04:53:37;;;;;;;14.07;6.25;;;;;;;;;;5091757;28;20392;-81
2022/03/24 04:56:10;;;;;;;18.00;6.00;;;;;;;;;;5089816;28;20052;-82
2022/03/24 04:58:39;;;;;;;13.00;5.63;;;;;;;;;;5083719;28;20095;-81
2022/03/24 05:01:14;;;;;;;13.18;6.40;;;;;;;;;;5084321;28;20623;-81
2022/03/24 05:03:46;;;;;;;12.20;5.85;;;;;;;;;;5093077;28;20044;-81
2022/03/24 05:06:15;;;;;;;9.73;4.80;;;;;;;;;;5089411;28;20074;-81
2022/03/24 05:08:44;;;;;;;15.25;5.60;;;;;;;;;;5086781;28;20047;-81
2022/03/24 05:11:14;;;;;;;16.95;6.05;;;;;;;;;;5093802;28;20063;-81
2022/03/24 05:13:42;;;;;;;15.02;5.32;;;;;;;;;;5093522;28;20338;-81
2022/03/24 05:16:10;;;;;;;15.63;5.50;;;;;;;;;;5094060;28;20040;-81
2022/03/24 05:18:39;;;;;;;14.30;5.55;;;;;;;;;;5084652;28;20052;-81
2022/03/24 05:21:11;;;;;;;13.30;5.97;;;;;;;;;;5095239;28;20046;-81
2022/03/24 05:23:40;;;;;;;10.85;4.97;;;;;;;;;;5089910;28;20047;-80
2022/03/24 05:26:08;;;;;;;8.40;4.55;;;;;;;;;;5091440;28;20048;-81
2022/03/24 05:28:38;;;;;;;16.90;5.15;;;;;;;;;;5079633;28;20147;-80
2022/03/24 05:31:10;;;;;;;15.15;5.93;;;;;;;;;;5084465;28;20074;-81
2022/03/24 05:33:39;;;;;;;12.88;4.60;;;;;;;;;;5090697;28;20062;-81
2022/03/24 05:36:10;;;;;;;11.13;5.05;;;;;;;;;;5084943;28;20107;-81
2022/03/24 05:38:39;;;;;;;18.17;6.03;;;;;;;;;;5083427;28;20130;-81
2022/03/24 05:41:13;;;;;;;13.63;5.10;;;;;;;;;;5092433;28;20075;-81
2022/03/24 05:44:02;;;;;;;12.60;5.82;;;;;;;;;;5097087;28;20074;-81
2022/03/24 05:46:39;;;;;;;13.73;4.65;;;;;;;;;;5093355;28;20063;-81
2022/03/24 05:49:08;;;;;;;15.38;5.38;;;;;;;;;;5088618;28;20050;-82
2022/03/24 05:51:37;;;;;;;18.08;5.18;;;;;;;;;;5096800;28;20103;-82
2022/03/24 05:54:05;;;;;;;15.93;6.05;;;;;;;;;;5086988;28;20048;-82
2022/03/24 05:56:34;;;;;;;15.32;5.05;;;;;;;;;;5083796;28;20314;-82
2022/03/24 05:59:03;;;;;;;15.98;5.38;;;;;;;;;;5085407;28;20103;-81
2022/03/24 06:01:33;;;;;;;15.75;5.88;;;;;;;;;;5095160;28;20072;-82
2022/03/24 06:04:03;;;;;;;11.63;5.53;;;;;;;;;;5084783;28;20048;-82
2022/03/24 06:06:34;;;;;;;16.48;5.43;;;;;;;;;;5090122;28;20063;-81
2022/03/24 06:09:04;;;;;;;15.93;5.95;;;;;;;;;;5088470;28;20040;-81
2022/03/24 06:11:33;;;;;;;23.20;5.93;;;;;;;;;;5087865;28;20134;-84
2022/03/24 06:14:01;;;;;;;18.83;5.57;;;;;;;;;;5088515;28;20059;-83
2022/03/24 06:16:31;;;;;;;17.10;6.10;;;;;;;;;;5091887;28;20135;-82
2022/03/24 06:19:00;;;;;;;14.30;4.82;;;;;;;;;;5084287;28;20052;-81
2022/03/24 06:21:29;;;;;;;17.92;6.32;;;;;;;;;;5080210;28;20045;-83
2022/03/24 06:23:58;;;;;;;11.90;5.00;;;;;;;;;;5094091;28;20048;-82
2022/03/24 06:26:26;;;;;;;10.70;5.68;;;;;;;;;;5088144;28;20519;-83
2022/03/24 06:28:54;;;;;;;16.83;5.28;;;;;;;;;;5089226;28;20097;-83
2022/03/24 06:31:23;;;;;;;12.90;5.20;;;;;;;;;;5081095;28;20469;-83
2022/03/24 06:33:53;;;;;;;17.85;5.30;;;;;;;;;;5084481;28;20071;-82
2022/03/24 06:36:21;;;;;;;12.75;6.25;;;;;;;;;;5084791;28;20044;-82
2022/03/24 06:38:50;;;;;;;15.25;5.82;;;;;;;;;;5086448;28;20610;-82
2022/03/24 06:41:18;;;;;;;17.80;5.43;;;;;;;;;;5091425;28;20067;-83
2022/03/24 06:43:47;;;;;;;14.45;5.65;;;;;;;;;;5087450;28;20076;-83
2022/03/24 06:46:16;;;;;;;19.25;6.32;;;;;;;;;;5088784;28;20050;-83
2022/03/24 06:48:44;;;;;;;15.02;5.82;;;;;;;;;;5093732;28;20095;-82
2022/03/24 06:51:14;;;;;;;13.00;5.80;;;;;;;;;;5094681;28;20071;-83
2022/03/24 06:53:42;;;;;;;17.30;6.85;;;;;;;;;;5098542;28;20075;-83
2022/03/24 06:56:11;;;;;;;22.48;6.40;;;;;;;;;;5099093;28;20055;-83
2022/03/24 06:58:39;;;;;;;14.77;6.05;;;;;;;;;;5099000;28;20067;-83
2022/03/24 07:01:11;;;;;;;15.13;5.78;;;;;;;;;;5098798;28;20105;-82
2022/03/24 07:03:40;;;;;;;12.20;5.68;;;;;;;;;;5102676;28;20040;-82
2022/03/24 07:06:09;;;;;;;14.65;5.80;;;;;;;;;;5097675;28;20064;-83
2022/03/24 07:08:39;;;;;;;14.63;6.22;;;;;;;;;;5094100;28;20143;-83
2022/03/24 07:11:10;;;;;;;10.98;5.68;;;;;;;;;;5096393;28;20097;-82
2022/03/24 07:13:39;;;;;;;10.18;5.15;;;;;;;;;;5095798;28;20557;-81
2022/03/24 07:16:10;;;;;;;12.98;5.53;;;;;;;;;;5104523;28;20048;-82
2022/03/24 07:18:38;;;;;;;12.68;5.93;;;;;;;;;;5100585;28;20048;-82
2022/03/24 07:21:10;;;;;;;9.68;5.18;;;;;;;;;;5103270;28;20063;-82
2022/03/24 07:23:40;;;;;;;13.75;5.95;;;;;;;;;;5102901;28;20040;-82
2022/03/24 07:26:11;;;;;;;13.65;5.30;;;;;;;;;;5092801;28;20116;-82
2022/03/24 07:28:39;;;;;;;12.00;5.38;;;;;;;;;;5094543;28;20078;-82
2022/03/24 07:31:11;;;;;;;12.70;6.50;;;;;;;;;;5101040;28;20127;-83
2022/03/24 07:33:39;;;;;;;13.27;4.80;;;;;;;;;;5093046;28;20525;-83
2022/03/24 07:36:10;;;;;;;14.20;5.80;;;;;;;;;;5092544;28;20083;-83
2022/03/24 07:38:40;;;;;;;14.05;7.18;;;;;;;;;;5088792;28;20551;-82
2022/03/24 07:41:12;;;;;;;15.13;6.32;;;;;;;;;;5085749;28;20084;-82
2022/03/24 07:43:41;;;;;;;14.55;6.20;;;;;;;;;;5081563;28;20056;-82
2022/03/24 07:46:09;;;;;;;14.05;5.63;;;;;;;;;;5086693;28;20105;-82
2022/03/24 07:48:38;;;;;;;12.60;5.13;;;;;;;;;;5095704;28;20085;-82
2022/03/24 07:51:10;;;;;;;10.73;5.15;;;;;;;;;;5082235;28;20187;-82
2022/03/24 07:53:52;;;;;;;13.98;5.68;;;;;;;;;;5088093;28;20119;-82
2022/03/24 07:56:24;;;;;;;11.38;4.80;;;;;;;;;;5093364;28;20415;-83
2022/03/24 07:58:52;;;;;;;16.58;5.78;;;;;;;;;;5085629;28;20558;-83
2022/03/24 08:01:26;;;;;;;14.70;5.43;;;;;;;;;;5094485;28;20083;-83
2022/03/24 08:03:54;;;;;;;13.05;5.75;;;;;;;;;;5089849;28;20132;-81
2022/03/24 08:06:23;;;;;;;15.80;5.43;;;;;;;;;;5092279;28;20116;-83
2022/03/24 08:08:53;;;;;;;13.18;6.10;;;;;;;;;;5083623;28;20059;-82
2022/03/24 08:11:22;;;;;;;14.70;5.93;;;;;;;;;;5090149;28;20105;-82
2022/03/24 08:13:53;;;;;;;11.55;5.00;;;;;;;;;;5088183;28;20048;-84
2022/03/24 08:16:22;;;;;;;13.82;5.68;;;;;;;;;;5091090;28;20124;-82
2022/03/24 08:18:51;;;;;;;11.15;5.70;;;;;;;;;;5087303;28;20052;-82
2022/03/24 08:21:19;;;;;;;14.25;5.13;;;;;;;;;;5095363;28;20479;-82
2022/03/24 08:23:48;;;;;;;11.50;5.32;;;;;;;;;;5092684;28;20123;-82
2022/03/24 08:26:18;;;;;;;15.20;5.70;;;;;;;;;;5091410;28;20040;-82
2022/03/24 08:28:55;;;;;;;13.18;5.80;;;;;;;;;;5092886;28;20056;-82
2022/03/24 08:31:24;;;;;;;12.10;6.35;;;;;;;;;;5084084;28;20076;-83
2022/03/24 08:33:53;;;;;;;14.13;5.80;;;;;;;;;;5083950;28;20044;-82
2022/03/24 08:36:22;;;;;;;14.38;5.80;;;;;;;;;;5092452;28;20087;-82
2022/03/24 08:38:50;;;;;;;12.40;5.78;;;;;;;;;;5088796;28;20122;-82
2022/03/24 08:41:20;;;;;;;14.90;6.28;;;;;;;;;;5094794;28;20124;-82
2022/03/24 08:43:49;;;;;;;13.18;6.00;;;;;;;;;;5082432;28;20060;-82
2022/03/24 08:46:17;;;;;;;15.35;7.03;;;;;;;;;;5087913;28;20072;-82
2022/03/24 08:48:46;;;;;;;12.65;6.18;;;;;;;;;;5092130;28;20056;-82
2022/03/24 08:51:16;;;;;;;12.10;6.25;;;;;;;;;;5083340;28;20407;-82
2022/03/24 08:53:44;;;;;;;12.27;6.72;;;;;;;;;;5086058;28;20054;-82
2022/03/24 08:56:13;;;;;;;13.93;6.43;;;;;;;;;;5090897;28;20488;-82
2022/03/24 08:58:43;;;;;;;12.73;6.30;;;;;;;;;;5092474;28;20097;-82
2022/03/24 09:01:12;;;;;;;17.08;6.53;;;;;;;;;;5080326;28;20048;-82
2022/03/24 09:03:41;;;;;;;13.30;6.03;;;;;;;;;;5082566;28;20036;-82
2022/03/24 09:06:11;;;;;;;14.07;5.95;;;;;;;;;;5089175;28;20104;-82
2022/03/24 09:08:40;;;;;;;13.80;5.82;;;;;;;;;;5093505;28;20056;-82
2022/03/24 09:11:11;;;;;;;15.70;6.43;;;;;;;;;;5093937;28;20077;-82
2022/03/24 09:13:40;;;;;;;22.98;7.07;;;;;;;;;;5092752;28;20055;-82
2022/03/24 09:16:15;;;;;;;14.52;7.03;;;;;;;;;;5090630;28;20107;-82
2022/03/24 09:18:43;;;;;;;18.38;8.13;;;;;;;;;;5080126;28;20052;-84
2022/03/24 09:21:13;;;;;;;16.42;7.70;;;;;;;;;;5097240;28;20074;-82
2022/03/24 09:23:41;;;;;;;15.30;6.88;;;;;;;;;;5088661;28;20044;-82
2022/03/24 09:26:12;;;;;;;13.05;6.93;;;;;;;;;;5083508;28;20040;-84
2022/03/24 09:28:56;;;;;;;13.90;7.07;;;;;;;;;;5084897;28;20572;-82
2022/03/24 09:31:26;;;;;;;17.38;7.63;;;;;;;;;;5087731;28;20048;-82
2022/03/24 09:33:55;;;;;;;16.20;7.57;;;;;;;;;;5087188;28;20511;-82
2022/03/24 09:36:24;;;;;;;16.17;6.93;;;;;;;;;;5086391;28;20048;-82
2022/03/24 09:38:52;;;;;;;14.55;8.10;;;;;;;;;;5083402;28;20194;-82
2022/03/24 09:41:21;;;;;;;15.50;8.15;;;;;;;;;;5090575;28;20063;-82
2022/03/24 09:43:50;;;;;;;16.52;7.57;;;;;;;;;;5077293;28;20058;-82
2022/03/24 09:46:20;;;;;;;12.57;7.40;;;;;;;;;;5083917;28;20097;-82
2022/03/24 09:48:50;;;;;;;13.98;7.32;;;;;;;;;;5084217;28;20083;-82
2022/03/24 09:51:18;;;;;;;13.77;6.63;;;;;;;;;;5082682;28;20427;-82
2022/03/24 09:53:47;;;;;;;17.80;8.82;;;;;;;;;;5094726;28;20048;-83
2022/03/24 09:56:16;;;;;;;17.10;8.25;;;;;;;;;;5077302;28;20123;-83
2022/03/24 09:58:45;;;;;;;15.50;8.30;;;;;;;;;;5089400;28;20048;-83
2022/03/24 10:01:17;;;;;;;17.27;8.27;;;;;;;;;;5080556;28;20056;-82
2022/03/24 10:04:01;;;;;;;15.23;7.68;;;;;;;;;;5094740;28;20044;-82
2022/03/24 10:06:31;;;;;;;15.95;7.78;;;;;;;;;;5092701;28;20074;-82
2022/03/24 10:09:00;;;;;;;14.25;7.05;;;;;;;;;;5079592;28;20562;-82
2022/03/24 10:11:29;;;;;;;15.93;7.80;;;;;;;;;;5087022;28;20067;-83
2022/03/24 10:13:59;;;;;;;17.27;8.02;;;;;;;;;;5087018;28;20068;-83
2022/03/24 10:16:45;;;;;;;14.32;7.90;;;;;;;;;;5090457;28;20082;-83
2022/03/24 10:19:15;;;;;;;16.23;7.78;;;;;;;;;;5085715;28;20048;-83
2022/03/24 10:21:46;;;;;;;18.85;9.18;;;;;;;;;;5086585;28;20071;-83
2022/03/24 10:24:15;;;;;;;16.33;8.70;;;;;;;;;;5092505;28;20055;-83
2022/03/24 10:26:45;;;;;;;16.33;7.57;;;;;;;;;;5091148;28;20385;-83
2022/03/24 10:29:18;;;;;;;14.55;7.60;;;;;;;;;;5089441;28;20047;-83
2022/03/24 10:31:52;;;;;;;16.90;9.18;;;;;;;;;;5091395;28;20087;-83
2022/03/24 10:34:28;;;;;;;12.57;7.20;;;;;;;;;;5081003;28;20479;-83
2022/03/24 10:36:58;;;;;;;15.27;8.27;;;;;;;;;;5089032;28;20044;-83
2022/03/24 10:39:27;;;;;;;14.30;7.88;;;;;;;;;;5074869;28;20048;-83
2022/03/24 10:41:55;;;;;;;16.73;8.65;;;;;;;;;;5072477;28;20048;-83
2022/03/24 10:44:24;;;;;;;17.05;8.90;;;;;;;;;;5087962;28;20048;-83
2022/03/24 10:46:52;;;;;;;16.92;8.57;;;;;;;;;;5090273;28;20109;-83
2022/03/24 10:49:23;;;;;;;13.35;7.72;;;;;;;;;;5091740;28;20504;-83
2022/03/24 10:51:58;;;;;;;14.07;8.07;;;;;;;;;;5087030;28;20048;-83
2022/03/24 10:54:28;;;;;;;14.05;8.07;;;;;;;;;;5090677;28;20115;-83
2022/03/24 10:56:59;;;;;;;15.70;8.15;;;;;;;;;;5091465;28;20080;-83
2022/03/24 10:59:30;;;;;;;9.70;6.68;;;;;;;;;;5085342;28;20084;-83
2022/03/24 11:01:58;;;;;;;12.88;7.93;;;;;;;;;;5090244;28;20055;-83
2022/03/24 11:04:27;;;;;;;12.07;6.70;;;;;;;;;;5090523;28;20040;-83
2022/03/24 11:06:55;;;;;;;12.55;7.25;;;;;;;;;;5086195;28;20123;-83
2022/03/24 11:09:26;;;;;;;10.98;6.43;;;;;;;;;;5091660;28;20051;-83
2022/03/24 11:12:12;;;;;;;11.95;5.97;;;;;;;;;;5089444;28;20044;-83
2022/03/24 11:14:41;;;;;;;10.35;6.53;;;;;;;;;;5086134;28;20044;-83
2022/03/24 11:17:09;;;;;;;12.57;6.05;;;;;;;;;;5075771;28;20097;-85
2022/03/24 11:19:40;;;;;;;13.48;6.38;;;;;;;;;;5082587;28;20087;-83
2022/03/24 11:22:13;;;;;;;11.48;6.97;;;;;;;;;;5083854;28;20083;-83
2022/03/24 11:24:43;;;;;;;14.18;7.00;;;;;;;;;;5077612;28;20044;-83
2022/03/24 11:27:11;;;;;;;11.95;6.93;;;;;;;;;;5085425;28;20084;-83
2022/03/24 11:29:40;;;;;;;10.88;6.80;;;;;;;;;;5086633;28;20067;-82
2022/03/24 11:32:10;;;;;;;14.00;6.55;;;;;;;;;;5087927;28;20040;-83
2022/03/24 11:34:39;;;;;;;14.07;7.55;;;;;;;;;;5083328;28;20080;-83
2022/03/24 11:37:07;;;;;;;9.57;6.43;;;;;;;;;;5086528;28;20048;-83
2022/03/24 11:39:36;;;;;;;12.38;6.95;;;;;;;;;;5086775;28;20048;-83
2022/03/24 11:42:06;;;;;;;13.50;7.45;;;;;;;;;;5086523;28;20059;-83
2022/03/24 11:44:43;;;;;;;14.43;7.03;;;;;;;;;;5084988;28;20131;-83
2022/03/24 11:47:13;;;;;;;13.52;7.35;;;;;;;;;;5084851;28;20079;-83
2022/03/24 11:49:42;;;;;;;11.30;6.90;;;;;;;;;;5079660;28;20113;-83
2022/03/24 11:52:24;;;;;;;11.75;7.18;;;;;;;;;;5091991;28;20113;-83
2022/03/24 11:54:54;;;;;;;12.57;6.65;;;;;;;;;;5091177;28;20044;-83
2022/03/24 11:57:28;;;;;;;11.50;6.63;;;;;;;;;;5086750;28;20076;-83
2022/03/24 12:00:15;;;;;;;9.77;6.37;;;;;;;;;;5090328;28;20051;-83
2022/03/24 12:02:45;;;;;;;17.83;7.75;;;;;;;;;;5089872;28;20363;-83
2022/03/24 12:05:14;;;;;;;13.63;7.38;;;;;;;;;;5086881;28;20044;-83
2022/03/24 12:07:43;;;;;;;13.35;7.47;;;;;;;;;;5089557;28;20044;-83
2022/03/24 12:10:13;;;;;;;11.15;6.97;;;;;;;;;;5084816;28;20040;-83
2022/03/24 12:13:02;;;;;;;11.20;6.35;;;;;;;;;;5091207;28;20555;-83
2022/03/24 12:15:33;;;;;;;11.65;6.75;;;;;;;;;;5083187;28;20045;-83
2022/03/24 12:18:02;;;;;;;12.20;6.68;;;;;;;;;;5091307;28;20277;-83
2022/03/24 12:20:40;;;;;;;9.48;6.40;;;;;;;;;;5085547;28;20076;-83
2022/03/24 12:23:09;;;;;;;11.43;6.18;;;;;;;;;;5080564;28;20044;-83
2022/03/24 12:25:37;;;;;;;9.80;6.55;;;;;;;;;;5082888;28;20047;-83
2022/03/24 12:28:15;;;;;;;11.38;6.03;;;;;;;;;;5082717;28;20068;-84
2022/03/24 12:30:54;;;;;;;10.27;6.63;;;;;;;;;;5075425;28;20080;-84
2022/03/24 12:33:34;;;;;;;11.93;7.25;;;;;;;;;;5086091;28;20036;-84
2022/03/24 12:36:14;;;;;;;12.32;7.13;;;;;;;;;;5089073;28;20087;-83
2022/03/24 12:38:45;;;;;;;10.98;6.88;;;;;;;;;;5082891;28;20051;-83
2022/03/24 12:41:19;;;;;;;12.25;7.38;;;;;;;;;;5082357;28;20048;-83
2022/03/24 12:43:53;;;;;;;13.38;7.60;;;;;;;;;;5087646;28;20139;-83
2022/03/24 12:46:22;;;;;;;10.13;7.03;;;;;;;;;;5084984;28;20102;-84
2022/03/24 12:48:51;;;;;;;13.40;7.95;;;;;;;;;;5091487;28;20059;-83
2022/03/24 12:51:21;;;;;;;13.13;7.75;;;;;;;;;;5088914;28;20067;-83
2022/03/24 12:53:51;;;;;;;11.43;6.68;;;;;;;;;;5092462;28;20105;-83
2022/03/24 12:56:21;;;;;;;17.40;7.45;;;;;;;;;;5086308;28;20086;-84
2022/03/24 12:58:54;;;;;;;14.90;7.63;;;;;;;;;;5095336;28;20504;-83
2022/03/24 13:01:22;;;;;;;14.25;7.32;;;;;;;;;;5099940;28;20066;-83
2022/03/24 13:04:01;;;;;;;13.82;8.05;;;;;;;;;;5105242;28;20047;-83
2022/03/24 13:06:29;;;;;;;13.60;7.65;;;;;;;;;;5103580;28;20120;-83
2022/03/24 13:09:13;;;;;;;11.20;7.47;;;;;;;;;;5100723;28;20468;-83
2022/03/24 13:11:51;;;;;;;15.63;7.47;;;;;;;;;;5101226;28;20052;-83
2022/03/24 13:14:29;;;;;;;11.82;7.60;;;;;;;;;;5101082;28;20048;-84
2022/03/24 13:17:02;;;;;;;15.45;8.48;;;;;;;;;;5097946;28;20091;-83
2022/03/24 13:19:31;;;;;;;13.50;7.93;;;;;;;;;;5086997;28;20044;-84
2022/03/24 13:22:10;;;;;;;17.77;8.40;;;;;;;;;;5078468;28;20134;-84
2022/03/24 13:24:39;;;;;;;14.45;8.55;;;;;;;;;;5083913;28;20646;-84
2022/03/24 13:27:08;;;;;;;13.25;8.32;;;;;;;;;;5085064;28;20055;-84
2022/03/24 13:29:42;;;;;;;16.08;8.60;;;;;;;;;;5076909;28;20080;-84
2022/03/24 13:32:15;;;;;;;13.88;7.93;;;;;;;;;;5084214;28;20068;-84
2022/03/24 13:34:51;;;;;;;15.48;8.13;;;;;;;;;;5089388;28;20552;-84
2022/03/24 13:37:20;;;;;;;11.80;7.00;;;;;;;;;;5088932;28;20507;-84
2022/03/24 13:39:50;;;;;;;11.88;7.20;;;;;;;;;;5087823;28;20428;-84
2022/03/24 13:42:18;;;;;;;12.40;7.38;;;;;;;;;;5093991;28;20059;-84
2022/03/24 13:44:48;;;;;;;13.88;8.07;;;;;;;;;;5085430;28;20119;-84
2022/03/24 13:47:18;;;;;;;12.02;7.22;;;;;;;;;;5089680;28;20054;-84
2022/03/24 13:49:46;;;;;;;12.55;7.75;;;;;;;;;;5085722;28;20094;-84
2022/03/24 13:52:30;;;;;;;12.95;7.90;;;;;;;;;;5088801;28;20466;-84
2022/03/24 13:55:02;;;;;;;12.32;7.43;;;;;;;;;;5084794;28;20036;-84
2022/03/24 13:57:31;;;;;;;12.95;8.02;;;;;;;;;;5088393;28;20517;-84
2022/03/24 14:00:02;;;;;;;11.68;7.07;;;;;;;;;;5072553;28;20060;-84
2022/03/24 14:02:31;;;;;;;13.18;7.43;;;;;;;;;;5086461;28;20048;-84
2022/03/24 14:05:04;;;;;;;11.07;6.78;;;;;;;;;;5081831;28;20052;-84
2022/03/24 14:07:33;;;;;;;11.85;6.63;;;;;;;;;;5085273;28;20070;-84
2022/03/24 14:10:01;;;;;;;12.63;6.85;;;;;;;;;;5082221;28;20045;-84
2022/03/24 14:12:30;;;;;;;9.23;6.15;;;;;;;;;;5085438;28;20052;-84
2022/03/24 14:14:58;;;;;;;10.45;6.30;;;;;;;;;;5084101;28;20048;-84
2022/03/24 14:17:28;;;;;;;11.15;6.50;;;;;;;;;;5087602;28;20507;-84
2022/03/24 14:19:58;;;;;;;12.20;6.35;;;;;;;;;;5080131;28;20412;-84
2022/03/24 14:22:28;;;;;;;12.25;7.57;;;;;;;;;;5083028;28;20131;-84
2022/03/24 14:24:57;;;;;;;10.95;6.57;;;;;;;;;;5089426;28;20044;-84
2022/03/24 14:27:27;;;;;;;10.98;6.57;;;;;;;;;;5089592;28;20076;-84
2022/03/24 14:30:03;;;;;;;11.57;6.93;;;;;;;;;;5081113;28;20076;-84
2022/03/24 14:32:36;;;;;;;12.77;6.97;;;;;;;;;;5072618;28;20098;-84
2022/03/24 14:35:07;;;;;;;13.38;6.78;;;;;;;;;;5080574;28;20078;-84
2022/03/24 14:37:43;;;;;;;13.13;6.97;;;;;;;;;;5087698;28;20052;-84
2022/03/24 14:40:13;;;;;;;10.68;6.93;;;;;;;;;;5086968;28;20112;-84
2022/03/24 14:42:42;;;;;;;13.05;6.85;;;;;;;;;;5090132;28;20062;-84
2022/03/24 14:45:12;;;;;;;11.85;7.22;;;;;;;;;;5092325;28;20091;-85
2022/03/24 14:47:42;;;;;;;11.85;6.60;;;;;;;;;;5087171;28;20123;-85
2022/03/24 14:50:10;;;;;;;10.90;6.13;;;;;;;;;;5090615;28;20063;-85